sensor_id;sensor_type;location;lat;lon;timestamp;pressure;altitude;pressure_sealevel;temperature;humidity
13800;BME280;6971;50.028;9.258;2023-05-19T00:03:30;100093.53;;;10.40;64.29
13800;BME280;6971;50.028;9.258;2023-05-19T00:08:33;100092.47;;;10.23;64.41
13800;BME280;6971;50.028;9.258;2023-05-19T00:13:34;100094.69;;;10.32;63.14
13800;BME280;6971;50.028;9.258;2023-05-19T00:18:35;100088.91;;;10.24;63.20
13800;BME280;6971;50.028;9.258;2023-05-19T00:23:35;100092.56;;;10.20;62.90
13800;BME280;6971;50.028;9.258;2023-05-19T00:28:36;100085.59;;;10.19;64.36
13800;BME280;6971;50.028;9.258;2023-05-19T00:33:36;100091.97;;;10.13;63.04
13800;BME280;6971;50.028;9.258;2023-05-19T00:38:36;100084.16;;;10.12;63.06
13800;BME280;6971;50.028;9.258;2023-05-19T00:43:37;100081.44;;;10.13;63.18
13800;BME280;6971;50.028;9.258;2023-05-19T00:48:37;100076.72;;;10.22;62.84
13800;BME280;6971;50.028;9.258;2023-05-19T00:53:38;100074.75;;;10.06;63.46
13800;BME280;6971;50.028;9.258;2023-05-19T00:58:38;100070.31;;;10.06;63.03
13800;BME280;6971;50.028;9.258;2023-05-19T01:03:40;100061.50;;;10.08;63.00
13800;BME280;6971;50.028;9.258;2023-05-19T01:08:41;100062.16;;;10.13;63.04
13800;BME280;6971;50.028;9.258;2023-05-19T01:13:42;100058.34;;;9.99;64.31
13800;BME280;6971;50.028;9.258;2023-05-19T01:18:48;100059.13;;;10.01;63.33
13800;BME280;6971;50.028;9.258;2023-05-19T01:24:52;100061.25;;;9.91;63.59
13800;BME280;6971;50.028;9.258;2023-05-19T01:35:28;100058.66;;;9.69;65.08
13800;BME280;6971;50.028;9.258;2023-05-19T01:40:29;100057.81;;;9.69;64.68
13800;BME280;6971;50.028;9.258;2023-05-19T01:45:32;100060.44;;;9.69;65.66
13800;BME280;6971;50.028;9.258;2023-05-19T01:50:33;100064.19;;;9.63;64.95
13800;BME280;6971;50.028;9.258;2023-05-19T01:55:53;100064.31;;;9.60;65.12
13800;BME280;6971;50.028;9.258;2023-05-19T02:01:28;100063.91;;;9.47;66.11
13800;BME280;6971;50.028;9.258;2023-05-19T02:06:41;100062.03;;;9.50;65.52
13800;BME280;6971;50.028;9.258;2023-05-19T02:11:54;100060.31;;;9.49;65.80
13800;BME280;6971;50.028;9.258;2023-05-19T02:16:56;100063.19;;;9.43;65.61
13800;BME280;6971;50.028;9.258;2023-05-19T02:21:57;100060.88;;;9.11;66.96
13800;BME280;6971;50.028;9.258;2023-05-19T02:26:58;100060.66;;;9.18;66.92
13800;BME280;6971;50.028;9.258;2023-05-19T02:32:00;100063.34;;;9.16;67.20
13800;BME280;6971;50.028;9.258;2023-05-19T02:37:01;100074.06;;;8.86;69.41
13800;BME280;6971;50.028;9.258;2023-05-19T02:42:01;100070.09;;;8.99;68.66
13800;BME280;6971;50.028;9.258;2023-05-19T02:47:01;100063.91;;;8.77;70.00
13800;BME280;6971;50.028;9.258;2023-05-19T02:52:02;100055.91;;;8.80;69.05
13800;BME280;6971;50.028;9.258;2023-05-19T02:57:03;100055.38;;;8.44;72.55
13800;BME280;6971;50.028;9.258;2023-05-19T03:02:04;100061.75;;;8.37;73.22
13800;BME280;6971;50.028;9.258;2023-05-19T03:07:04;100055.00;;;8.03;74.95
13800;BME280;6971;50.028;9.258;2023-05-19T03:12:05;100057.16;;;7.91;75.87
13800;BME280;6971;50.028;9.258;2023-05-19T03:17:06;100049.06;;;7.97;75.26
13800;BME280;6971;50.028;9.258;2023-05-19T03:22:07;100056.91;;;7.99;75.45
13800;BME280;6971;50.028;9.258;2023-05-19T03:27:07;100061.13;;;8.03;75.72
13800;BME280;6971;50.028;9.258;2023-05-19T03:32:07;100060.78;;;8.14;74.04
13800;BME280;6971;50.028;9.258;2023-05-19T03:37:08;100061.88;;;8.07;74.88
13800;BME280;6971;50.028;9.258;2023-05-19T03:48:06;100068.31;;;7.98;76.07
13800;BME280;6971;50.028;9.258;2023-05-19T03:53:07;100069.66;;;7.83;78.69
13800;BME280;6971;50.028;9.258;2023-05-19T03:58:07;100069.88;;;7.77;78.72
13800;BME280;6971;50.028;9.258;2023-05-19T04:03:07;100078.44;;;7.82;78.69
13800;BME280;6971;50.028;9.258;2023-05-19T04:08:08;100081.63;;;7.92;80.39
13800;BME280;6971;50.028;9.258;2023-05-19T04:13:08;100090.63;;;7.84;80.46
13800;BME280;6971;50.028;9.258;2023-05-19T04:18:08;100086.78;;;7.95;80.19
13800;BME280;6971;50.028;9.258;2023-05-19T04:23:09;100092.94;;;7.94;80.85
13800;BME280;6971;50.028;9.258;2023-05-19T04:28:09;100074.97;;;8.08;77.52
13800;BME280;6971;50.028;9.258;2023-05-19T04:33:10;100079.84;;;8.19;77.42
13800;BME280;6971;50.028;9.258;2023-05-19T04:38:10;100078.22;;;8.15;78.82
13800;BME280;6971;50.028;9.258;2023-05-19T04:43:11;100080.81;;;8.42;77.84
13800;BME280;6971;50.028;9.258;2023-05-19T04:48:11;100087.59;;;8.49;79.69
13800;BME280;6971;50.028;9.258;2023-05-19T04:53:13;100085.94;;;8.72;79.01
13800;BME280;6971;50.028;9.258;2023-05-19T04:58:14;100078.03;;;8.74;81.15
13800;BME280;6971;50.028;9.258;2023-05-19T05:03:16;100080.16;;;9.12;77.26
13800;BME280;6971;50.028;9.258;2023-05-19T05:08:17;100085.47;;;9.34;78.63
13800;BME280;6971;50.028;9.258;2023-05-19T05:13:23;100087.19;;;9.58;72.58
13800;BME280;6971;50.028;9.258;2023-05-19T05:18:23;100090.50;;;9.63;78.17
13800;BME280;6971;50.028;9.258;2023-05-19T05:23:24;100096.19;;;9.97;72.59
13800;BME280;6971;50.028;9.258;2023-05-19T05:28:25;100095.63;;;10.31;69.51
13800;BME280;6971;50.028;9.258;2023-05-19T05:33:25;100090.06;;;10.60;67.18
13800;BME280;6971;50.028;9.258;2023-05-19T05:38:26;100092.53;;;10.84;67.34
13800;BME280;6971;50.028;9.258;2023-05-19T05:43:26;100091.56;;;11.06;67.94
13800;BME280;6971;50.028;9.258;2023-05-19T05:48:27;100087.00;;;10.90;70.87
13800;BME280;6971;50.028;9.258;2023-05-19T05:53:29;100082.16;;;11.00;71.30
13800;BME280;6971;50.028;9.258;2023-05-19T05:58:31;100082.91;;;11.23;68.86
13800;BME280;6971;50.028;9.258;2023-05-19T06:03:32;100085.59;;;11.41;64.72
13800;BME280;6971;50.028;9.258;2023-05-19T06:08:32;100082.50;;;11.69;63.45
13800;BME280;6971;50.028;9.258;2023-05-19T06:13:36;100090.16;;;11.93;67.94
13800;BME280;6971;50.028;9.258;2023-05-19T06:18:37;100083.94;;;11.94;67.21
13800;BME280;6971;50.028;9.258;2023-05-19T06:23:38;100087.78;;;12.42;62.29
13800;BME280;6971;50.028;9.258;2023-05-19T06:28:39;100079.69;;;12.62;62.40
13800;BME280;6971;50.028;9.258;2023-05-19T06:33:39;100082.66;;;12.56;62.77
13800;BME280;6971;50.028;9.258;2023-05-19T06:38:40;100084.97;;;12.62;61.31
13800;BME280;6971;50.028;9.258;2023-05-19T06:43:41;100080.84;;;12.57;60.20
13800;BME280;6971;50.028;9.258;2023-05-19T06:48:44;100074.75;;;12.90;59.82
13800;BME280;6971;50.028;9.258;2023-05-19T06:53:44;100073.91;;;13.05;58.10
13800;BME280;6971;50.028;9.258;2023-05-19T06:58:45;100078.97;;;13.42;58.84
13800;BME280;6971;50.028;9.258;2023-05-19T07:03:45;100088.31;;;13.50;56.32
13800;BME280;6971;50.028;9.258;2023-05-19T07:08:45;100091.28;;;13.76;56.43
13800;BME280;6971;50.028;9.258;2023-05-19T07:13:46;100091.06;;;14.11;56.25
13800;BME280;6971;50.028;9.258;2023-05-19T07:18:46;100080.50;;;14.40;55.60
13800;BME280;6971;50.028;9.258;2023-05-19T07:23:46;100069.66;;;14.14;54.31
13800;BME280;6971;50.028;9.258;2023-05-19T07:28:47;100061.16;;;14.23;55.23
13800;BME280;6971;50.028;9.258;2023-05-19T07:33:47;100053.44;;;14.49;54.85
13800;BME280;6971;50.028;9.258;2023-05-19T07:38:47;100052.44;;;14.81;52.46
13800;BME280;6971;50.028;9.258;2023-05-19T07:43:48;100047.69;;;15.01;54.06
13800;BME280;6971;50.028;9.258;2023-05-19T07:48:48;100048.25;;;15.48;52.10
13800;BME280;6971;50.028;9.258;2023-05-19T07:53:49;100046.41;;;15.91;52.35
13800;BME280;6971;50.028;9.258;2023-05-19T07:58:50;100036.97;;;15.45;51.84
13800;BME280;6971;50.028;9.258;2023-05-19T08:03:50;100036.53;;;15.65;51.21
13800;BME280;6971;50.028;9.258;2023-05-19T08:08:51;100027.00;;;15.21;51.91
13800;BME280;6971;50.028;9.258;2023-05-19T08:13:53;100033.19;;;15.76;50.38
13800;BME280;6971;50.028;9.258;2023-05-19T08:18:53;100033.88;;;15.38;50.88
13800;BME280;6971;50.028;9.258;2023-05-19T08:23:54;100023.81;;;15.43;49.65
13800;BME280;6971;50.028;9.258;2023-05-19T08:28:55;100022.56;;;15.89;48.53
13800;BME280;6971;50.028;9.258;2023-05-19T08:33:55;100026.25;;;16.01;47.19
13800;BME280;6971;50.028;9.258;2023-05-19T08:38:55;100021.16;;;16.11;47.68
13800;BME280;6971;50.028;9.258;2023-05-19T08:43:56;100026.28;;;16.27;47.24
13800;BME280;6971;50.028;9.258;2023-05-19T08:49:00;100021.28;;;16.23;48.74
13800;BME280;6971;50.028;9.258;2023-05-19T08:54:12;100016.50;;;16.41;48.56
13800;BME280;6971;50.028;9.258;2023-05-19T08:59:13;100008.22;;;17.09;46.88
13800;BME280;6971;50.028;9.258;2023-05-19T09:04:15;100015.41;;;17.57;45.30
13800;BME280;6971;50.028;9.258;2023-05-19T09:09:16;99996.41;;;17.38;45.81
13800;BME280;6971;50.028;9.258;2023-05-19T09:14:16;99995.97;;;17.44;46.36
13800;BME280;6971;50.028;9.258;2023-05-19T09:19:16;99997.59;;;16.96;45.84
13800;BME280;6971;50.028;9.258;2023-05-19T09:24:17;99991.78;;;17.88;44.46
13800;BME280;6971;50.028;9.258;2023-05-19T09:29:17;99991.03;;;17.75;45.19
13800;BME280;6971;50.028;9.258;2023-05-19T09:34:19;99987.38;;;17.76;44.98
13800;BME280;6971;50.028;9.258;2023-05-19T09:39:24;99992.13;;;18.20;43.83
13800;BME280;6971;50.028;9.258;2023-05-19T09:44:25;99990.06;;;17.87;43.77
13800;BME280;6971;50.028;9.258;2023-05-19T09:49:28;99985.75;;;17.62;43.17
13800;BME280;6971;50.028;9.258;2023-05-19T09:54:29;99985.44;;;17.78;44.11
13800;BME280;6971;50.028;9.258;2023-05-19T09:59:31;99983.81;;;18.70;43.13
13800;BME280;6971;50.028;9.258;2023-05-19T10:04:32;99971.28;;;18.48;42.98
13800;BME280;6971;50.028;9.258;2023-05-19T10:09:35;99970.94;;;18.64;43.60
13800;BME280;6971;50.028;9.258;2023-05-19T10:14:36;99960.59;;;18.71;44.49
13800;BME280;6971;50.028;9.258;2023-05-19T10:19:37;99952.84;;;18.79;46.59
13800;BME280;6971;50.028;9.258;2023-05-19T10:24:37;99946.31;;;18.49;45.33
13800;BME280;6971;50.028;9.258;2023-05-19T10:29:41;99953.31;;;18.96;44.27
13800;BME280;6971;50.028;9.258;2023-05-19T10:40:10;99940.84;;;19.29;43.06
13800;BME280;6971;50.028;9.258;2023-05-19T10:45:16;99930.53;;;19.57;43.16
13800;BME280;6971;50.028;9.258;2023-05-19T10:50:19;99940.28;;;19.47;43.42
13800;BME280;6971;50.028;9.258;2023-05-19T10:55:49;99937.25;;;20.46;41.50
13800;BME280;6971;50.028;9.258;2023-05-19T11:00:59;99933.97;;;20.43;42.13
13800;BME280;6971;50.028;9.258;2023-05-19T11:06:18;99929.09;;;19.53;44.14
13800;BME280;6971;50.028;9.258;2023-05-19T11:11:19;99928.19;;;20.79;41.55
13800;BME280;6971;50.028;9.258;2023-05-19T11:16:33;99939.44;;;21.63;40.90
13800;BME280;6971;50.028;9.258;2023-05-19T11:21:46;99938.72;;;21.81;38.90
13800;BME280;6971;50.028;9.258;2023-05-19T11:26:49;99932.84;;;20.77;40.35
13800;BME280;6971;50.028;9.258;2023-05-19T11:31:56;99922.66;;;21.21;39.66
13800;BME280;6971;50.028;9.258;2023-05-19T11:36:56;99921.50;;;21.14;40.36
13800;BME280;6971;50.028;9.258;2023-05-19T11:41:57;99916.53;;;19.32;43.61
13800;BME280;6971;50.028;9.258;2023-05-19T11:46:58;99919.97;;;21.61;40.28
13800;BME280;6971;50.028;9.258;2023-05-19T11:51:59;99915.66;;;22.08;38.94
13800;BME280;6971;50.028;9.258;2023-05-19T11:57:06;99908.88;;;22.03;39.10
13800;BME280;6971;50.028;9.258;2023-05-19T12:02:17;99906.97;;;21.07;40.61
13800;BME280;6971;50.028;9.258;2023-05-19T12:07:19;99903.91;;;19.98;43.12
13800;BME280;6971;50.028;9.258;2023-05-19T12:12:22;99900.59;;;19.63;43.67
13800;BME280;6971;50.028;9.258;2023-05-19T12:17:22;99907.03;;;20.66;43.12
13800;BME280;6971;50.028;9.258;2023-05-19T12:22:23;99906.03;;;20.67;40.94
13800;BME280;6971;50.028;9.258;2023-05-19T12:27:24;99909.03;;;20.83;39.90
13800;BME280;6971;50.028;9.258;2023-05-19T12:32:27;99895.69;;;19.90;41.26
13800;BME280;6971;50.028;9.258;2023-05-19T12:37:27;99904.06;;;19.96;41.95
13800;BME280;6971;50.028;9.258;2023-05-19T12:42:32;99903.34;;;19.73;41.84
13800;BME280;6971;50.028;9.258;2023-05-19T12:47:34;99894.97;;;19.45;41.84
13800;BME280;6971;50.028;9.258;2023-05-19T12:52:48;99897.38;;;19.69;42.29
13800;BME280;6971;50.028;9.258;2023-05-19T12:57:52;99895.97;;;19.65;42.82
13800;BME280;6971;50.028;9.258;2023-05-19T13:02:58;99883.97;;;20.02;40.31
13800;BME280;6971;50.028;9.258;2023-05-19T13:08:07;99876.13;;;19.89;40.93
13800;BME280;6971;50.028;9.258;2023-05-19T13:13:08;99873.13;;;20.04;40.46
13800;BME280;6971;50.028;9.258;2023-05-19T13:18:10;99866.66;;;20.47;40.93
13800;BME280;6971;50.028;9.258;2023-05-19T13:23:12;99868.50;;;19.85;41.26
13800;BME280;6971;50.028;9.258;2023-05-19T13:28:12;99867.47;;;19.76;41.32
13800;BME280;6971;50.028;9.258;2023-05-19T13:33:13;99860.81;;;20.22;39.76
13800;BME280;6971;50.028;9.258;2023-05-19T13:38:13;99858.03;;;20.34;39.27
13800;BME280;6971;50.028;9.258;2023-05-19T13:43:14;99841.47;;;20.50;38.63
13800;BME280;6971;50.028;9.258;2023-05-19T13:48:14;99849.09;;;20.55;39.69
13800;BME280;6971;50.028;9.258;2023-05-19T13:53:15;99843.72;;;20.65;38.97
13800;BME280;6971;50.028;9.258;2023-05-19T13:58:15;99848.50;;;20.41;39.11
13800;BME280;6971;50.028;9.258;2023-05-19T14:03:17;99849.66;;;20.17;39.23
13800;BME280;6971;50.028;9.258;2023-05-19T14:08:18;99843.59;;;20.66;39.41
13800;BME280;6971;50.028;9.258;2023-05-19T14:13:19;99849.28;;;20.32;39.52
13800;BME280;6971;50.028;9.258;2023-05-19T14:18:19;99847.72;;;20.19;39.47
13800;BME280;6971;50.028;9.258;2023-05-19T14:23:20;99845.56;;;20.13;39.97
13800;BME280;6971;50.028;9.258;2023-05-19T14:28:20;99834.97;;;20.02;39.73
13800;BME280;6971;50.028;9.258;2023-05-19T14:33:21;99830.84;;;19.98;39.08
13800;BME280;6971;50.028;9.258;2023-05-19T14:38:21;99838.28;;;20.25;39.59
13800;BME280;6971;50.028;9.258;2023-05-19T14:43:22;99842.88;;;19.82;40.34
13800;BME280;6971;50.028;9.258;2023-05-19T14:48:22;99823.16;;;20.04;39.66
13800;BME280;6971;50.028;9.258;2023-05-19T14:53:22;99816.00;;;19.83;38.32
13800;BME280;6971;50.028;9.258;2023-05-19T14:58:23;99821.94;;;20.18;37.90
13800;BME280;6971;50.028;9.258;2023-05-19T15:03:23;99825.25;;;20.01;39.25
13800;BME280;6971;50.028;9.258;2023-05-19T15:08:23;99823.97;;;19.74;39.61
13800;BME280;6971;50.028;9.258;2023-05-19T15:13:24;99810.78;;;19.82;39.23
13800;BME280;6971;50.028;9.258;2023-05-19T15:18:25;99807.00;;;19.85;38.59
13800;BME280;6971;50.028;9.258;2023-05-19T15:23:25;99812.13;;;19.45;40.27
13800;BME280;6971;50.028;9.258;2023-05-19T15:28:26;99821.25;;;19.21;41.19
13800;BME280;6971;50.028;9.258;2023-05-19T15:33:26;99812.81;;;19.04;42.13
13800;BME280;6971;50.028;9.258;2023-05-19T15:38:26;99809.00;;;18.86;42.39
13800;BME280;6971;50.028;9.258;2023-05-19T15:43:27;99815.78;;;19.23;41.64
13800;BME280;6971;50.028;9.258;2023-05-19T15:48:27;99809.19;;;19.05;42.20
13800;BME280;6971;50.028;9.258;2023-05-19T15:53:28;99811.97;;;19.04;41.24
13800;BME280;6971;50.028;9.258;2023-05-19T15:58:28;99806.56;;;18.94;44.68
13800;BME280;6971;50.028;9.258;2023-05-19T16:03:28;99815.66;;;19.24;42.44
13800;BME280;6971;50.028;9.258;2023-05-19T16:08:29;99806.13;;;18.77;42.69
13800;BME280;6971;50.028;9.258;2023-05-19T16:13:29;99806.38;;;19.07;44.16
13800;BME280;6971;50.028;9.258;2023-05-19T16:18:32;99804.38;;;19.21;42.46
13800;BME280;6971;50.028;9.258;2023-05-19T16:23:32;99790.06;;;19.43;42.43
13800;BME280;6971;50.028;9.258;2023-05-19T16:28:33;99791.22;;;19.08;43.01
13800;BME280;6971;50.028;9.258;2023-05-19T16:33:33;99787.00;;;19.05;43.90
13800;BME280;6971;50.028;9.258;2023-05-19T16:38:33;99790.00;;;18.68;44.58
13800;BME280;6971;50.028;9.258;2023-05-19T16:43:36;99777.75;;;18.76;43.93
13800;BME280;6971;50.028;9.258;2023-05-19T16:48:36;99779.72;;;18.63;42.95
13800;BME280;6971;50.028;9.258;2023-05-19T16:53:37;99775.38;;;18.62;44.19
13800;BME280;6971;50.028;9.258;2023-05-19T16:58:38;99779.09;;;18.71;46.13
13800;BME280;6971;50.028;9.258;2023-05-19T17:03:39;99783.81;;;18.34;44.73
13800;BME280;6971;50.028;9.258;2023-05-19T17:08:39;99780.56;;;18.08;44.32
13800;BME280;6971;50.028;9.258;2023-05-19T17:13:39;99769.31;;;17.93;48.88
13800;BME280;6971;50.028;9.258;2023-05-19T17:18:42;99767.59;;;17.46;47.41
13800;BME280;6971;50.028;9.258;2023-05-19T17:23:43;99765.75;;;17.35;48.41
13800;BME280;6971;50.028;9.258;2023-05-19T17:28:43;99766.38;;;17.50;48.05
13800;BME280;6971;50.028;9.258;2023-05-19T17:33:43;99762.22;;;17.34;46.86
13800;BME280;6971;50.028;9.258;2023-05-19T17:38:44;99771.03;;;17.23;48.69
13800;BME280;6971;50.028;9.258;2023-05-19T17:43:44;99769.63;;;16.95;50.79
13800;BME280;6971;50.028;9.258;2023-05-19T17:48:45;99763.75;;;16.78;54.39
13800;BME280;6971;50.028;9.258;2023-05-19T17:53:45;99759.56;;;16.38;57.28
13800;BME280;6971;50.028;9.258;2023-05-19T17:58:46;99761.44;;;16.25;57.86
13800;BME280;6971;50.028;9.258;2023-05-19T18:03:46;99768.91;;;15.93;59.38
13800;BME280;6971;50.028;9.258;2023-05-19T18:08:48;99765.97;;;15.85;60.78
13800;BME280;6971;50.028;9.258;2023-05-19T18:13:50;99766.94;;;15.58;61.90
13800;BME280;6971;50.028;9.258;2023-05-19T18:18:51;99767.47;;;15.50;63.14
13800;BME280;6971;50.028;9.258;2023-05-19T18:23:51;99765.00;;;15.21;64.97
13800;BME280;6971;50.028;9.258;2023-05-19T18:28:51;99761.06;;;15.01;65.55
13800;BME280;6971;50.028;9.258;2023-05-19T18:33:52;99760.50;;;14.83;63.46
13800;BME280;6971;50.028;9.258;2023-05-19T18:38:52;99763.56;;;14.77;59.10
13800;BME280;6971;50.028;9.258;2023-05-19T18:43:54;99765.50;;;14.60;64.78
13800;BME280;6971;50.028;9.258;2023-05-19T18:48:54;99770.28;;;14.40;66.16
13800;BME280;6971;50.028;9.258;2023-05-19T18:53:54;99761.28;;;14.43;64.36
13800;BME280;6971;50.028;9.258;2023-05-19T18:58:55;99766.91;;;14.23;62.70
13800;BME280;6971;50.028;9.258;2023-05-19T19:03:58;99764.81;;;13.87;66.39
13800;BME280;6971;50.028;9.258;2023-05-19T19:08:59;99766.63;;;13.72;68.66
13800;BME280;6971;50.028;9.258;2023-05-19T19:14:00;99763.22;;;13.55;68.52
13800;BME280;6971;50.028;9.258;2023-05-19T19:19:00;99769.75;;;13.18;69.94
13800;BME280;6971;50.028;9.258;2023-05-19T19:24:01;99773.69;;;13.11;69.56
13800;BME280;6971;50.028;9.258;2023-05-19T19:29:01;99766.78;;;12.94;70.25
13800;BME280;6971;50.028;9.258;2023-05-19T19:34:01;99775.66;;;12.77;72.29
13800;BME280;6971;50.028;9.258;2023-05-19T19:39:08;99780.16;;;12.60;73.62
13800;BME280;6971;50.028;9.258;2023-05-19T19:44:08;99786.97;;;12.32;74.41
13800;BME280;6971;50.028;9.258;2023-05-19T19:49:08;99782.72;;;12.46;71.28
13800;BME280;6971;50.028;9.258;2023-05-19T19:54:08;99785.13;;;12.34;73.45
13800;BME280;6971;50.028;9.258;2023-05-19T19:59:09;99787.41;;;12.24;73.79
13800;BME280;6971;50.028;9.258;2023-05-19T20:04:10;99790.22;;;12.05;74.19
13800;BME280;6971;50.028;9.258;2023-05-19T20:09:10;99788.63;;;12.01;75.71
13800;BME280;6971;50.028;9.258;2023-05-19T20:14:11;99790.22;;;12.05;74.97
13800;BME280;6971;50.028;9.258;2023-05-19T20:19:11;99786.06;;;11.83;76.92
13800;BME280;6971;50.028;9.258;2023-05-19T20:24:12;99789.72;;;11.81;76.62
13800;BME280;6971;50.028;9.258;2023-05-19T20:29:12;99792.69;;;11.74;77.33
13800;BME280;6971;50.028;9.258;2023-05-19T20:34:12;99793.25;;;11.64;79.19
13800;BME280;6971;50.028;9.258;2023-05-19T20:39:13;99797.69;;;11.45;79.86
13800;BME280;6971;50.028;9.258;2023-05-19T20:44:13;99791.19;;;11.35;81.16
13800;BME280;6971;50.028;9.258;2023-05-19T20:49:13;99788.50;;;11.19;83.46
13800;BME280;6971;50.028;9.258;2023-05-19T20:54:14;99790.81;;;11.07;87.00
13800;BME280;6971;50.028;9.258;2023-05-19T20:59:14;99786.53;;;11.05;84.42
13800;BME280;6971;50.028;9.258;2023-05-19T21:04:15;99794.53;;;10.86;88.10
13800;BME280;6971;50.028;9.258;2023-05-19T21:09:15;99791.34;;;10.96;87.52
13800;BME280;6971;50.028;9.258;2023-05-19T21:14:15;99788.78;;;10.95;88.89
13800;BME280;6971;50.028;9.258;2023-05-19T21:19:15;99784.84;;;10.86;87.45
13800;BME280;6971;50.028;9.258;2023-05-19T21:24:16;99790.13;;;10.86;88.63
13800;BME280;6971;50.028;9.258;2023-05-19T21:29:19;99787.75;;;10.80;87.38
13800;BME280;6971;50.028;9.258;2023-05-19T21:34:19;99788.47;;;10.66;87.65
13800;BME280;6971;50.028;9.258;2023-05-19T21:39:19;99788.16;;;10.72;89.14
13800;BME280;6971;50.028;9.258;2023-05-19T21:44:20;99781.47;;;10.65;89.98
13800;BME280;6971;50.028;9.258;2023-05-19T21:49:23;99790.13;;;10.86;88.59
13800;BME280;6971;50.028;9.258;2023-05-19T21:54:23;99787.41;;;10.88;88.88
13800;BME280;6971;50.028;9.258;2023-05-19T21:59:23;99794.66;;;10.82;87.70
13800;BME280;6971;50.028;9.258;2023-05-19T22:04:24;99788.00;;;10.75;90.37
13800;BME280;6971;50.028;9.258;2023-05-19T22:09:24;99793.03;;;10.80;88.93
13800;BME280;6971;50.028;9.258;2023-05-19T22:14:25;99789.66;;;10.95;87.19
13800;BME280;6971;50.028;9.258;2023-05-19T22:19:25;99789.09;;;10.89;87.03
13800;BME280;6971;50.028;9.258;2023-05-19T22:24:25;99780.41;;;11.04;84.92
13800;BME280;6971;50.028;9.258;2023-05-19T22:29:26;99776.06;;;11.03;85.74
13800;BME280;6971;50.028;9.258;2023-05-19T22:34:26;99782.28;;;11.02;86.27
13800;BME280;6971;50.028;9.258;2023-05-19T22:39:26;99789.25;;;11.03;86.93
13800;BME280;6971;50.028;9.258;2023-05-19T22:44:27;99789.81;;;11.10;85.28
13800;BME280;6971;50.028;9.258;2023-05-19T22:49:27;99782.69;;;11.12;86.80
13800;BME280;6971;50.028;9.258;2023-05-19T22:54:28;99778.16;;;11.14;87.04
13800;BME280;6971;50.028;9.258;2023-05-19T22:59:29;99779.31;;;11.08;87.56
13800;BME280;6971;50.028;9.258;2023-05-19T23:04:30;99776.84;;;11.23;86.63
13800;BME280;6971;50.028;9.258;2023-05-19T23:09:31;99778.72;;;11.21;87.09
13800;BME280;6971;50.028;9.258;2023-05-19T23:14:31;99770.31;;;11.13;89.02
13800;BME280;6971;50.028;9.258;2023-05-19T23:19:31;99762.75;;;11.06;91.23
13800;BME280;6971;50.028;9.258;2023-05-19T23:24:34;99761.50;;;11.14;89.32
13800;BME280;6971;50.028;9.258;2023-05-19T23:29:34;99760.84;;;11.26;88.30
13800;BME280;6971;50.028;9.258;2023-05-19T23:34:34;99757.59;;;11.21;88.80
13800;BME280;6971;50.028;9.258;2023-05-19T23:39:34;99759.00;;;11.28;88.56
13800;BME280;6971;50.028;9.258;2023-05-19T23:44:37;99755.56;;;11.26;89.45
13800;BME280;6971;50.028;9.258;2023-05-19T23:49:37;99761.72;;;11.27;89.96
13800;BME280;6971;50.028;9.258;2023-05-19T23:54:37;99751.00;;;11.30;89.97
13800;BME280;6971;50.028;9.258;2023-05-19T23:59:38;99758.22;;;11.26;91.25
